Aviation Digital Data Service (ADDS)

Output produced by METARs form (0344 UTC 26 June 2019)
found at http://www.aviationweather.gov/metar/data/
 
METAR text: EGYP 260250Z 30011KT 9999 SCT040 00/M01 Q0986 BLU
Conditions at: EGYP (MOUNT PLEASANT , FK) observed 0250 UTC 26 June 2019
Temperature: 0.0°C (32°F)
Dewpoint: -1.0°C (30°F) [RH = 93%]
Pressure (altimeter): 29.11 inches Hg (986.0 mb)
Winds: from the WNW (300 degrees) at 13 MPH (11 knots; 5.7 m/s)
Visibility: 6 or more miles (10+ km)
Ceiling: at least 12,000 feet AGL
Clouds: scattered clouds at 4000 feet AGL
Weather: no significant weather observed at this time

METAR text: EGYP 260150Z 29011KT CAVOK 00/M02 Q0987 BLU
Conditions at: EGYP (MOUNT PLEASANT , FK) observed 0150 UTC 26 June 2019
Temperature: 0.0°C (32°F)
Dewpoint: -2.0°C (28°F) [RH = 86%]
Pressure (altimeter): 29.14 inches Hg (987.0 mb)
Winds: from the WNW (290 degrees) at 13 MPH (11 knots; 5.7 m/s)
Visibility: 6 or more miles (10+ km)
Ceiling: ceiling and visibility are OK
Clouds: unknown
Weather: no significant weather observed at this time

METAR text: EGYP 260050Z 29012KT CAVOK 00/M02 Q0987 BLU
Conditions at: EGYP (MOUNT PLEASANT , FK) observed 0050 UTC 26 June 2019
Temperature: 0.0°C (32°F)
Dewpoint: -2.0°C (28°F) [RH = 86%]
Pressure (altimeter): 29.14 inches Hg (987.0 mb)
Winds: from the WNW (290 degrees) at 14 MPH (12 knots; 6.2 m/s)
Visibility: 6 or more miles (10+ km)
Ceiling: ceiling and visibility are OK
Clouds: unknown
Weather: no significant weather observed at this time

METAR text: EGYP 252350Z 30014KT CAVOK 01/M02 Q0987 BLU
Conditions at: EGYP (MOUNT PLEASANT , FK) observed 2350 UTC 25 June 2019
Temperature: 1.0°C (34°F)
Dewpoint: -2.0°C (28°F) [RH = 80%]
Pressure (altimeter): 29.14 inches Hg (987.0 mb)
Winds: from the WNW (300 degrees) at 16 MPH (14 knots; 7.2 m/s)
Visibility: 6 or more miles (10+ km)
Ceiling: ceiling and visibility are OK
Clouds: unknown
Weather: no significant weather observed at this time

METAR text: EGYP 252250Z 30013KT CAVOK M00/M03 Q0987 BLU
Conditions at: EGYP (MOUNT PLEASANT , FK) observed 2250 UTC 25 June 2019
Temperature: 0.0°C (32°F)
Dewpoint: -3.0°C (27°F) [RH = 80%]
Pressure (altimeter): 29.14 inches Hg (987.0 mb)
Winds: from the WNW (300 degrees) at 15 MPH (13 knots; 6.7 m/s)
Visibility: 6 or more miles (10+ km)
Ceiling: ceiling and visibility are OK
Clouds: unknown
Weather: no significant weather observed at this time

METAR text: EGYP 252150Z 30011KT 9999 FEW012 00/M03 Q0988 BLU
Conditions at: EGYP (MOUNT PLEASANT , FK) observed 2150 UTC 25 June 2019
Temperature: 0.0°C (32°F)
Dewpoint: -3.0°C (27°F) [RH = 80%]
Pressure (altimeter): 29.17 inches Hg (988.0 mb)
Winds: from the WNW (300 degrees) at 13 MPH (11 knots; 5.7 m/s)
Visibility: 6 or more miles (10+ km)
Ceiling: at least 12,000 feet AGL
Clouds: few clouds at 1200 feet AGL
Weather: no significant weather observed at this time

METAR text: EGYP 252050Z 30011KT 9999 FEW012 M01/M03 Q0988 BLU NOSIG
Conditions at: EGYP (MOUNT PLEASANT , FK) observed 2050 UTC 25 June 2019
Temperature: -1.0°C (30°F)
Dewpoint: -3.0°C (27°F) [RH = 86%]
Pressure (altimeter): 29.17 inches Hg (988.0 mb)
Winds: from the WNW (300 degrees) at 13 MPH (11 knots; 5.7 m/s)
Visibility: 6 or more miles (10+ km)
Ceiling: at least 12,000 feet AGL
Clouds: few clouds at 1200 feet AGL
Weather: no significant weather observed at this time

METAR text: EGYP 251950Z 29011KT 9999 FEW012 00/M02 Q0988 BLU NOSIG
Conditions at: EGYP (MOUNT PLEASANT , FK) observed 1950 UTC 25 June 2019
Temperature: 0.0°C (32°F)
Dewpoint: -2.0°C (28°F) [RH = 86%]
Pressure (altimeter): 29.17 inches Hg (988.0 mb)
Winds: from the WNW (290 degrees) at 13 MPH (11 knots; 5.7 m/s)
Visibility: 6 or more miles (10+ km)
Ceiling: at least 12,000 feet AGL
Clouds: few clouds at 1200 feet AGL
Weather: no significant weather observed at this time

METAR text: EGYP 251750Z 28014KT 9999 FEW010 FEW015CB 01/M01 Q0988 BLU TEMPO 28019G29KT 2000 SHSN SCT004 BKN012CB YLO2
Conditions at: EGYP (MOUNT PLEASANT , FK) observed 1750 UTC 25 June 2019
Temperature: 1.0°C (34°F)
Dewpoint: -1.0°C (30°F) [RH = 86%]
Pressure (altimeter): 29.17 inches Hg (988.0 mb)
Winds: from the W (280 degrees) at 16 MPH (14 knots; 7.2 m/s)
Visibility: 6 or more miles (10+ km)
Ceiling: at least 12,000 feet AGL
Clouds: few clouds at 1000 feet AGL
few clouds at 1500 feet AGL
Weather: no significant weather observed at this time

METAR text: EGYP 251650Z 28014KT 9999 FEW012CB 02/M02 Q0988 BLU TEMPO 28015G25KT 1500 SHSN SCT002 BKN012CB AMB
Conditions at: EGYP (MOUNT PLEASANT , FK) observed 1650 UTC 25 June 2019
Temperature: 2.0°C (36°F)
Dewpoint: -2.0°C (28°F) [RH = 75%]
Pressure (altimeter): 29.17 inches Hg (988.0 mb)
Winds: from the W (280 degrees) at 16 MPH (14 knots; 7.2 m/s)
Visibility: 6 or more miles (10+ km)
Ceiling: at least 12,000 feet AGL
Clouds: few clouds at 1200 feet AGL
Weather: no significant weather observed at this time

METAR text: EGYP 251550Z 27015KT 9999 FEW010 01/M01 Q0989 BLU NOSIG
Conditions at: EGYP (MOUNT PLEASANT , FK) observed 1550 UTC 25 June 2019
Temperature: 1.0°C (34°F)
Dewpoint: -1.0°C (30°F) [RH = 86%]
Pressure (altimeter): 29.20 inches Hg (989.0 mb)
Winds: from the W (270 degrees) at 17 MPH (15 knots; 7.7 m/s)
Visibility: 6 or more miles (10+ km)
Ceiling: at least 12,000 feet AGL
Clouds: few clouds at 1000 feet AGL
Weather: no significant weather observed at this time

METAR text: EGYP 251450Z 28014KT 9999 FEW030 01/M01 Q0989 BLU NOSIG
Conditions at: EGYP (MOUNT PLEASANT , FK) observed 1450 UTC 25 June 2019
Temperature: 1.0°C (34°F)
Dewpoint: -1.0°C (30°F) [RH = 86%]
Pressure (altimeter): 29.20 inches Hg (989.0 mb)
Winds: from the W (280 degrees) at 16 MPH (14 knots; 7.2 m/s)
Visibility: 6 or more miles (10+ km)
Ceiling: at least 12,000 feet AGL
Clouds: few clouds at 3000 feet AGL
Weather: no significant weather observed at this time

METAR text: EGYP 251350Z 28012KT 9999 FEW030 00/M02 Q0989 BLU NOSIG
Conditions at: EGYP (MOUNT PLEASANT , FK) observed 1350 UTC 25 June 2019
Temperature: 0.0°C (32°F)
Dewpoint: -2.0°C (28°F) [RH = 86%]
Pressure (altimeter): 29.20 inches Hg (989.0 mb)
Winds: from the W (280 degrees) at 14 MPH (12 knots; 6.2 m/s)
Visibility: 6 or more miles (10+ km)
Ceiling: at least 12,000 feet AGL
Clouds: few clouds at 3000 feet AGL
Weather: no significant weather observed at this time

METAR text: EGYP 251150Z 29014KT 9999 FEW040 00/M00 Q0989 BLU NOSIG
Conditions at: EGYP (MOUNT PLEASANT , FK) observed 1150 UTC 25 June 2019
Temperature: 0.0°C (32°F)
Dewpoint: 0.0°C (32°F) [RH = 100%]
Pressure (altimeter): 29.20 inches Hg (989.0 mb)
Winds: from the WNW (290 degrees) at 16 MPH (14 knots; 7.2 m/s)
Visibility: 6 or more miles (10+ km)
Ceiling: at least 12,000 feet AGL
Clouds: few clouds at 4000 feet AGL
Weather: no significant weather observed at this time

METAR text: EGYP 251050Z 29014KT 9999 SCT040 00/M00 Q0989 BLU NOSIG
Conditions at: EGYP (MOUNT PLEASANT , FK) observed 1050 UTC 25 June 2019
Temperature: 0.0°C (32°F)
Dewpoint: 0.0°C (32°F) [RH = 100%]
Pressure (altimeter): 29.20 inches Hg (989.0 mb)
Winds: from the WNW (290 degrees) at 16 MPH (14 knots; 7.2 m/s)
Visibility: 6 or more miles (10+ km)
Ceiling: at least 12,000 feet AGL
Clouds: scattered clouds at 4000 feet AGL
Weather: no significant weather observed at this time

METAR text: EGYP 250950Z 29010KT 9999 FEW020 SCT042 01/M01 Q0988 BLU
Conditions at: EGYP (MOUNT PLEASANT , FK) observed 0950 UTC 25 June 2019
Temperature: 1.0°C (34°F)
Dewpoint: -1.0°C (30°F) [RH = 86%]
Pressure (altimeter): 29.17 inches Hg (988.0 mb)
Winds: from the WNW (290 degrees) at 12 MPH (10 knots; 5.1 m/s)
Visibility: 6 or more miles (10+ km)
Ceiling: at least 12,000 feet AGL
Clouds: few clouds at 2000 feet AGL
scattered clouds at 4200 feet AGL
Weather: no significant weather observed at this time

METAR text: EGYP 250850Z 29010KT 9999 FEW032 01/M02 Q0988 BLU
Conditions at: EGYP (MOUNT PLEASANT , FK) observed 0850 UTC 25 June 2019
Temperature: 1.0°C (34°F)
Dewpoint: -2.0°C (28°F) [RH = 80%]
Pressure (altimeter): 29.17 inches Hg (988.0 mb)
Winds: from the WNW (290 degrees) at 12 MPH (10 knots; 5.1 m/s)
Visibility: 6 or more miles (10+ km)
Ceiling: at least 12,000 feet AGL
Clouds: few clouds at 3200 feet AGL
Weather: no significant weather observed at this time

METAR text: EGYP 250750Z 33005KT CAVOK M00/M02 Q0989 BLU
Conditions at: EGYP (MOUNT PLEASANT , FK) observed 0750 UTC 25 June 2019
Temperature: 0.0°C (32°F)
Dewpoint: -2.0°C (28°F) [RH = 86%]
Pressure (altimeter): 29.20 inches Hg (989.0 mb)
Winds: from the NNW (330 degrees) at 6 MPH (5 knots; 2.6 m/s)
Visibility: 6 or more miles (10+ km)
Ceiling: ceiling and visibility are OK
Clouds: unknown
Weather: no significant weather observed at this time

METAR text: EGYP 250650Z 34008KT CAVOK 00/M02 Q0990 BLU
Conditions at: EGYP (MOUNT PLEASANT , FK) observed 0650 UTC 25 June 2019
Temperature: 0.0°C (32°F)
Dewpoint: -2.0°C (28°F) [RH = 86%]
Pressure (altimeter): 29.23 inches Hg (990.0 mb)
Winds: from the NNW (340 degrees) at 9 MPH (8 knots; 4.1 m/s)
Visibility: 6 or more miles (10+ km)
Ceiling: ceiling and visibility are OK
Clouds: unknown
Weather: no significant weather observed at this time

METAR text: EGYP 250550Z 32008KT CAVOK 01/M02 Q0990 BLU
Conditions at: EGYP (MOUNT PLEASANT , FK) observed 0550 UTC 25 June 2019
Temperature: 1.0°C (34°F)
Dewpoint: -2.0°C (28°F) [RH = 80%]
Pressure (altimeter): 29.23 inches Hg (990.0 mb)
Winds: from the NW (320 degrees) at 9 MPH (8 knots; 4.1 m/s)
Visibility: 6 or more miles (10+ km)
Ceiling: ceiling and visibility are OK
Clouds: unknown
Weather: no significant weather observed at this time

METAR text: EGYP 250450Z 30009KT CAVOK 01/M01 Q0990 BLU
Conditions at: EGYP (MOUNT PLEASANT , FK) observed 0450 UTC 25 June 2019
Temperature: 1.0°C (34°F)
Dewpoint: -1.0°C (30°F) [RH = 86%]
Pressure (altimeter): 29.23 inches Hg (990.0 mb)
Winds: from the WNW (300 degrees) at 10 MPH (9 knots; 4.6 m/s)
Visibility: 6 or more miles (10+ km)
Ceiling: ceiling and visibility are OK
Clouds: unknown
Weather: no significant weather observed at this time

METAR text: EGYP 250350Z 30008KT 9999 FEW030 BKN190 01/M01 Q0991 BLU
Conditions at: EGYP (MOUNT PLEASANT , FK) observed 0350 UTC 25 June 2019
Temperature: 1.0°C (34°F)
Dewpoint: -1.0°C (30°F) [RH = 86%]
Pressure (altimeter): 29.26 inches Hg (991.0 mb)
Winds: from the WNW (300 degrees) at 9 MPH (8 knots; 4.1 m/s)
Visibility: 6 or more miles (10+ km)
Ceiling: 19000 feet AGL
Clouds: few clouds at 3000 feet AGL
broken clouds at 19000 feet AGL
Weather: no significant weather observed at this time

METAR text: EGYP 250250Z 29008KT CAVOK 01/M01 Q0991 BLU
Conditions at: EGYP (MOUNT PLEASANT , FK) observed 0250 UTC 25 June 2019
Temperature: 1.0°C (34°F)
Dewpoint: -1.0°C (30°F) [RH = 86%]
Pressure (altimeter): 29.26 inches Hg (991.0 mb)
Winds: from the WNW (290 degrees) at 9 MPH (8 knots; 4.1 m/s)
Visibility: 6 or more miles (10+ km)
Ceiling: ceiling and visibility are OK
Clouds: unknown
Weather: no significant weather observed at this time

METAR text: EGYP 250150Z 28011KT 9999 FEW030 SCT160 BKN200 02/00 Q0991 BLU NOSIG
Conditions at: EGYP (MOUNT PLEASANT , FK) observed 0150 UTC 25 June 2019
Temperature: 2.0°C (36°F)
Dewpoint: 0.0°C (32°F) [RH = 87%]
Pressure (altimeter): 29.26 inches Hg (991.0 mb)
Winds: from the W (280 degrees) at 13 MPH (11 knots; 5.7 m/s)
Visibility: 6 or more miles (10+ km)
Ceiling: 20000 feet AGL
Clouds: few clouds at 3000 feet AGL
scattered clouds at 16000 feet AGL
broken clouds at 20000 feet AGL
Weather: no significant weather observed at this time

METAR text: EGYP 250050Z 29010KT 9999 FEW030 BKN150 01/00 Q0991 BLU NOSIG
Conditions at: EGYP (MOUNT PLEASANT , FK) observed 0050 UTC 25 June 2019
Temperature: 1.0°C (34°F)
Dewpoint: 0.0°C (32°F) [RH = 93%]
Pressure (altimeter): 29.26 inches Hg (991.0 mb)
Winds: from the WNW (290 degrees) at 12 MPH (10 knots; 5.1 m/s)
Visibility: 6 or more miles (10+ km)
Ceiling: 15000 feet AGL
Clouds: few clouds at 3000 feet AGL
broken clouds at 15000 feet AGL
Weather: no significant weather observed at this time

METAR text: EGYP 242350Z 28011KT 9999 SCT030 BKN150 02/01 Q0991 BLU NOSIG
Conditions at: EGYP (MOUNT PLEASANT , FK) observed 2350 UTC 24 June 2019
Temperature: 2.0°C (36°F)
Dewpoint: 1.0°C (34°F) [RH = 93%]
Pressure (altimeter): 29.26 inches Hg (991.0 mb)
Winds: from the W (280 degrees) at 13 MPH (11 knots; 5.7 m/s)
Visibility: 6 or more miles (10+ km)
Ceiling: 15000 feet AGL
Clouds: scattered clouds at 3000 feet AGL
broken clouds at 15000 feet AGL
Weather: no significant weather observed at this time

METAR text: EGYP 242250Z 28010KT CAVOK 03/02 Q0990 BLU NOSIG
Conditions at: EGYP (MOUNT PLEASANT , FK) observed 2250 UTC 24 June 2019
Temperature: 3.0°C (37°F)
Dewpoint: 2.0°C (36°F) [RH = 93%]
Pressure (altimeter): 29.23 inches Hg (990.0 mb)
Winds: from the W (280 degrees) at 12 MPH (10 knots; 5.1 m/s)
Visibility: 6 or more miles (10+ km)
Ceiling: ceiling and visibility are OK
Clouds: unknown
Weather: no significant weather observed at this time

METAR text: EGYP 242150Z 29008KT 9999 FEW018 OVC080 02/02 Q990 BLU
Conditions at: EGYP (MOUNT PLEASANT , FK) observed 2150 UTC 24 June 2019
Temperature: 2.0°C (36°F)
Dewpoint: 2.0°C (36°F) [RH = 100%]
Pressure (altimeter): missing
Winds: from the WNW (290 degrees) at 9 MPH (8 knots; 4.1 m/s)
Visibility: 6 or more miles (10+ km)
Ceiling: 8000 feet AGL
Clouds: few clouds at 1800 feet AGL
overcast cloud deck at 8000 feet AGL
Weather: no significant weather observed at this time

METAR text: EGYP 242050Z 29008KT 9999 -RA FEW020 OVC040 01/01 Q0990 BLU NOSIG
Conditions at: EGYP (MOUNT PLEASANT , FK) observed 2050 UTC 24 June 2019
Temperature: 1.0°C (34°F)
Dewpoint: 1.0°C (34°F) [RH = 100%]
Pressure (altimeter): 29.23 inches Hg (990.0 mb)
Winds: from the WNW (290 degrees) at 9 MPH (8 knots; 4.1 m/s)
Visibility: 6 or more miles (10+ km)
Ceiling: 4000 feet AGL
Clouds: few clouds at 2000 feet AGL
overcast cloud deck at 4000 feet AGL
Weather: -RA  (light rain)

METAR text: EGYP 241950Z 28013KT 3000 -SN FEW006 BKN009 OVC020 01/00 Q0990 YLO1 TEMPO 9999 NSW FEW009 OVC020 WHT
Conditions at: EGYP (MOUNT PLEASANT , FK) observed 1950 UTC 24 June 2019
Temperature: 1.0°C (34°F)
Dewpoint: 0.0°C (32°F) [RH = 93%]
Pressure (altimeter): 29.23 inches Hg (990.0 mb)
Winds: from the W (280 degrees) at 15 MPH (13 knots; 6.7 m/s)
Visibility: 1.86 miles (2.99 km)
Ceiling: 900 feet AGL
Clouds: few clouds at 600 feet AGL
broken clouds at 900 feet AGL
overcast cloud deck at 2000 feet AGL
Weather: -SN  (light snow)

METAR text: EGYP 241850Z 35022KT 7000 -RA BKN006 OVC018 06/05 Q0989 YLO1 BECMG 9999 NSW BKN008 GRN
Conditions at: EGYP (MOUNT PLEASANT , FK) observed 1850 UTC 24 June 2019
Temperature: 6.0°C (43°F)
Dewpoint: 5.0°C (41°F) [RH = 93%]
Pressure (altimeter): 29.20 inches Hg (989.0 mb)
Winds: from the N (350 degrees) at 25 MPH (22 knots; 11.3 m/s)
Visibility: 4 miles ( 7 km)
Ceiling: 600 feet AGL
Clouds: broken clouds at 600 feet AGL
overcast cloud deck at 1800 feet AGL
Weather: -RA  (light rain)

METAR text: EGYP 241750Z 35023KT 8000 -RA OVC005 05/05 Q0989 YLO1 TEMPO FEW005 OVC007 GRN
Conditions at: EGYP (MOUNT PLEASANT , FK) observed 1750 UTC 24 June 2019
Temperature: 5.0°C (41°F)
Dewpoint: 5.0°C (41°F) [RH = 100%]
Pressure (altimeter): 29.20 inches Hg (989.0 mb)
Winds: from the N (350 degrees) at 26 MPH (23 knots; 11.8 m/s)
Visibility: 5 miles ( 8 km)
Ceiling: 500 feet AGL
Clouds: overcast cloud deck at 500 feet AGL
Weather: -RA  (light rain)

METAR text: EGYP 241650Z 35025KT 3000 -RADZ OVC005 05/04 Q0991 YLO1 TEMPO 9999 NSW OVC007 GRN
Conditions at: EGYP (MOUNT PLEASANT , FK) observed 1650 UTC 24 June 2019
Temperature: 5.0°C (41°F)
Dewpoint: 4.0°C (39°F) [RH = 93%]
Pressure (altimeter): 29.26 inches Hg (991.0 mb)
Winds: from the N (350 degrees) at 29 MPH (25 knots; 12.9 m/s)
Visibility: 1.86 miles (2.99 km)
Ceiling: 500 feet AGL
Clouds: overcast cloud deck at 500 feet AGL
Weather: -RA -DZ  (light rain, light drizzle)

METAR text: EGYP 241550Z 36024G34KT 3000 -DZ OVC005 04/04 Q0992 YLO1 TEMPO 8000 -DZ FEW005 OVC007 GRN
Conditions at: EGYP (MOUNT PLEASANT , FK) observed 1550 UTC 24 June 2019
Temperature: 4.0°C (39°F)
Dewpoint: 4.0°C (39°F) [RH = 100%]
Pressure (altimeter): 29.29 inches Hg (992.0 mb)
Winds: from the N (360 degrees) at 28 MPH (24 knots; 12.3 m/s)
gusting to 39 MPH (34 knots; 17.5 m/s)
Visibility: 1.86 miles (2.99 km)
Ceiling: 500 feet AGL
Clouds: overcast cloud deck at 500 feet AGL
Weather: -DZ  (light drizzle)

Forecast for: EGYP (MOUNT PLEASANT , FK)
Text: TAF EGYP 260143Z 2603/2621 31014KT 9999 FEW030
Forecast period: 0300 to 0700 UTC 26 June 2019
Forecast type: FROM: standard forecast or significant change
Winds: from the NW (310 degrees) at 16 MPH (14 knots; 7.2 m/s)
Visibility: 6 or more miles 10+ km)
Ceiling: at least 12,000 feet AGL
Clouds: few clouds at 3000 feet AGL
Weather: no significant weather forecast for this period
Text: BECMG 2607/2609 35015G25KT 520003
Forecast period: 0700 to 1500 UTC 26 June 2019
Forecast type: BECOMING: Conditions expected to become as follows by 0900 UTC 26 June 2019
Winds: from the N (350 degrees) at 17 MPH (15 knots; 7.7 m/s)
gusting to 29 MPH (25 knots; 12.9 m/s)
Visibility: 6 or more miles 10+ km)
Ceiling: at least 12,000 feet AGL
Clouds: few clouds at 3000 feet AGL
Weather: no significant weather forecast for this period
Text: PROB40
Forecast period: 0900 to 1500 UTC 26 June 2019
Forecast type: TEMPORARY: The following changes expected for less than half the time period
Winds: from the N (360 degrees) at 29 MPH (25 knots; 12.9 m/s)
gusting to 40 MPH (35 knots; 18.0 m/s)
Visibility: missing
Ceiling: unknown
Clouds: missing
Weather: no significant weather forecast for this period
Text: TEMPO 2609/2615 36025G35KT 530003
Forecast period: 0900 to 1500 UTC 26 June 2019
Forecast type: TEMPORARY: The following changes expected for less than half the time period
Winds: variable direction winds at 9 MPH (8 knots; 4.1 m/s)
Visibility: missing
Ceiling: at least 12,000 feet AGL
Clouds: scattered clouds at 800 feet AGL
Weather: no significant weather forecast for this period
Text: PROB30
Forecast period: 1500 to 2100 UTC 26 June 2019
Forecast type: BECOMING: Conditions expected to become as follows by 1800 UTC 26 June 2019
Winds: from the NNE (20 degrees) at 23 MPH (20 knots; 10.3 m/s)
gusting to 34 MPH (30 knots; 15.4 m/s)
Visibility: 6 or more miles 10+ km)
Ceiling: at least 12,000 feet AGL
Clouds: few clouds at 3000 feet AGL
Weather: no significant weather forecast for this period
Text: TEMPO 2609/2615 VRB08KT SCT008 560006
Forecast period: 1500 to 1800 UTC 26 June 2019
Forecast type: TEMPORARY: The following changes expected for less than half the time period
Visibility: 3 miles (5 km)
Ceiling: 700 feet AGL
Clouds: broken clouds at 700 feet AGL
Weather: -RA -DZ  (light rain, light drizzle)
Text: BECMG 2615/2618 02020G30KT 50////
Forecast period: 1500 to 1900 UTC 26 June 2019
Forecast type: TEMPORARY: The following changes expected for less than half the time period
Winds: from the N (10 degrees) at 38 MPH (33 knots; 17.0 m/s)
gusting to 49 MPH (43 knots; 22.1 m/s)
Visibility: missing
Ceiling: unknown
Clouds: missing
Weather: no significant weather forecast for this period
Text: TEMPO 2615/2618 5000 -RADZ BKN007
Forecast period: 1900 to 2100 UTC 26 June 2019
Forecast type: TEMPORARY: The following changes expected for less than half the time period
Visibility: 1.24 miles (2.00 km)
Ceiling: 300 feet AGL
Clouds: broken clouds at 300 feet AGL
Weather: DZ  (moderate drizzle)